Epsom, Indiana
Current Conditions -  °F | °C
As of 12:15 PM on Friday 28 Nov 2014 (Local Time) from KDCY Reporting Station
Clear Clear  
Wind Chill: 26°   Ceiling: Unl
Heat Index: 36°   Visibility: 10mi
Dew Point: 29°   Wind: 15mph
Humidity: 77%   Direction: 170°S
Pressure: 30.23"   Gusts: NA
Location:  38.7791°N, 87.1828°W
Report Text: KDCY 281815Z AUTO 17013KT 10SM CLR 02/M02 A3023 RMK AO2 T00211016
Loading
Personal Weather Stations






























Interactive Weather Map New forecast layout! Learn more

10-Day Weather Forecast

Advertisements
Track Severe Weather on mobile